createdAt,value
2022-12-16T00:00:29.846Z,39.03
2022-12-16T00:02:59.400Z,38.83
2022-12-16T00:05:25.993Z,38.08
2022-12-16T00:07:52.464Z,36.58
2022-12-16T00:10:22.860Z,38.45
2022-12-16T00:12:49.360Z,34.78
2022-12-16T00:15:18.436Z,38.67
2022-12-16T00:17:44.955Z,35.55
2022-12-16T00:20:11.916Z,34.08
2022-12-16T00:22:38.448Z,35.08
2022-12-16T00:25:05.295Z,44.20
2022-12-16T00:27:31.815Z,38.92
2022-12-16T00:29:58.340Z,35.75
2022-12-16T00:32:24.812Z,37.13
2022-12-16T00:34:51.316Z,36.65
2022-12-16T00:37:18.405Z,35.90
2022-12-16T00:39:44.900Z,37.22
2022-12-16T00:42:11.428Z,36.92
2022-12-16T00:44:37.988Z,36.40
2022-12-16T00:47:06.315Z,37.28
2022-12-16T00:49:32.938Z,38.17
2022-12-16T00:51:59.400Z,39.00
2022-12-16T00:54:25.867Z,34.75
2022-12-16T00:56:52.363Z,38.85
2022-12-16T00:59:18.879Z,38.85
2022-12-16T01:01:45.551Z,35.83
2022-12-16T01:04:12.318Z,36.35
2022-12-16T01:06:38.941Z,37.15
2022-12-16T01:09:05.539Z,40.00
2022-12-16T01:11:32.128Z,38.80
2022-12-16T01:13:59.534Z,35.58
2022-12-16T01:16:26.047Z,36.17
2022-12-16T01:18:53.356Z,39.35
2022-12-16T01:21:22.167Z,35.55
2022-12-16T01:23:48.728Z,34.83
2022-12-16T01:26:17.875Z,39.63
2022-12-16T01:28:45.018Z,34.75
2022-12-16T01:31:12.394Z,36.60
2022-12-16T01:33:39.184Z,36.45
2022-12-16T01:36:08.126Z,36.17
2022-12-16T01:38:35.868Z,40.63
2022-12-16T01:41:02.925Z,39.70
2022-12-16T01:43:33.895Z,38.13
2022-12-16T01:46:07.637Z,36.72
2022-12-16T01:48:59.994Z,36.10
2022-12-16T01:51:38.303Z,35.30
2022-12-16T01:54:22.425Z,36.75
2022-12-16T01:56:54.087Z,36.38
2022-12-16T01:59:25.284Z,36.83
2022-12-16T02:01:52.733Z,38.65
2022-12-16T02:04:19.375Z,40.80
2022-12-16T02:06:46.041Z,38.15
2022-12-16T02:09:15.311Z,40.00
2022-12-16T02:12:00.468Z,38.45
2022-12-16T02:14:58.815Z,39.97
2022-12-16T02:17:41.193Z,41.25
2022-12-16T02:20:48.480Z,39.42
2022-12-16T02:23:47.383Z,38.97
2022-12-16T02:26:34.463Z,40.15
2022-12-16T02:29:37.968Z,37.72
2022-12-16T02:32:23.074Z,42.97
2022-12-16T02:34:59.215Z,38.50
2022-12-16T02:37:44.754Z,37.70
2022-12-16T02:40:21.418Z,41.70
2022-12-16T02:42:54.684Z,42.30
2022-12-16T02:45:27.427Z,44.30
2022-12-16T02:47:54.491Z,45.22
2022-12-16T02:50:34.966Z,39.20
2022-12-16T02:53:02.857Z,42.72
2022-12-16T02:55:57.180Z,41.33
2022-12-16T02:58:46.226Z,41.20
2022-12-16T03:01:25.566Z,43.45
2022-12-16T03:03:58.326Z,43.88
2022-12-16T03:06:27.347Z,39.10
2022-12-16T03:08:59.828Z,44.60
2022-12-16T03:11:29.677Z,48.75
2022-12-16T03:13:57.836Z,42.95
2022-12-16T03:16:29.725Z,43.20
2022-12-16T03:19:01.867Z,44.10
2022-12-16T03:21:34.592Z,46.70
2022-12-16T03:24:03.513Z,43.80
2022-12-16T03:26:46.810Z,45.45
2022-12-16T03:29:27.087Z,42.30
2022-12-16T03:32:02.013Z,46.05
2022-12-16T03:34:37.346Z,44.88
2022-12-16T03:37:07.711Z,45.38
2022-12-16T03:39:40.231Z,48.13
2022-12-16T03:42:07.395Z,48.38
2022-12-16T03:44:35.927Z,49.83
2022-12-16T03:47:02.516Z,45.30
2022-12-16T03:49:29.153Z,43.20
2022-12-16T03:51:56.277Z,47.20
2022-12-16T03:54:23.542Z,46.92
2022-12-16T03:56:50.068Z,44.80
2022-12-16T03:59:16.711Z,44.13
2022-12-16T04:01:43.774Z,42.90
2022-12-16T04:04:10.438Z,44.38
2022-12-16T04:06:36.906Z,40.72
2022-12-16T04:09:03.928Z,41.15
2022-12-16T04:11:48.972Z,44.75
2022-12-16T04:14:34.003Z,42.55
2022-12-16T04:17:19.123Z,45.47
2022-12-16T04:20:04.919Z,50.40
2022-12-16T04:22:59.093Z,48.03
2022-12-16T04:25:32.354Z,48.78
2022-12-16T04:27:59.241Z,48.15
2022-12-16T04:30:27.966Z,46.63
2022-12-16T04:33:19.306Z,47.85
2022-12-16T04:36:04.671Z,45.90
2022-12-16T04:38:50.626Z,49.47
2022-12-16T04:41:36.122Z,49.47
2022-12-16T04:44:21.852Z,46.95
2022-12-16T04:47:07.126Z,47.53
2022-12-16T04:49:52.247Z,47.03
2022-12-16T04:52:37.847Z,53.15
2022-12-16T04:55:24.071Z,49.95
2022-12-16T04:58:13.948Z,48.88
2022-12-16T05:00:59.851Z,50.15
2022-12-16T05:06:31.963Z,48.95
2022-12-16T05:09:17.200Z,47.88
2022-12-16T05:12:02.298Z,51.22
2022-12-16T05:14:47.555Z,48.20
2022-12-16T05:17:33.177Z,51.25
2022-12-16T05:20:18.519Z,53.22
2022-12-16T05:23:03.917Z,53.05
2022-12-16T05:25:48.874Z,62.90
2022-12-16T05:28:44.633Z,59.57
2022-12-16T05:31:29.653Z,69.50
2022-12-16T05:34:14.948Z,65.07
2022-12-16T05:36:59.807Z,73.40
2022-12-16T05:39:44.976Z,82.72
2022-12-16T05:42:30.370Z,71.15
2022-12-16T05:45:15.351Z,76.32
2022-12-16T05:48:00.426Z,80.83
2022-12-16T05:50:45.619Z,76.18
2022-12-16T05:53:30.876Z,74.97
2022-12-16T05:56:16.222Z,74.82
2022-12-16T05:59:01.104Z,70.70
2022-12-16T06:01:46.629Z,67.37
2022-12-16T06:04:31.642Z,72.72
2022-12-16T06:07:16.846Z,61.50
2022-12-16T06:10:01.773Z,67.10
2022-12-16T06:12:46.776Z,69.70
2022-12-16T06:15:31.796Z,66.47
2022-12-16T06:18:16.598Z,75.07
2022-12-16T06:21:02.901Z,66.35
2022-12-16T06:23:47.971Z,66.32
2022-12-16T06:26:32.829Z,64.07
2022-12-16T06:29:17.840Z,68.60
2022-12-16T06:32:03.089Z,63.97
2022-12-16T06:34:48.200Z,69.68
2022-12-16T06:37:33.048Z,64.50
2022-12-16T06:40:17.896Z,63.28
2022-12-16T06:43:02.771Z,62.95
2022-12-16T06:45:47.726Z,61.35
2022-12-16T06:48:33.067Z,69.50
2022-12-16T06:51:18.040Z,64.82
2022-12-16T06:54:03.115Z,58.70
2022-12-16T06:56:48.257Z,60.85
2022-12-16T06:59:33.380Z,62.53
2022-12-16T07:02:18.783Z,58.65
2022-12-16T07:05:03.664Z,53.40
2022-12-16T07:07:48.470Z,57.20
2022-12-16T07:10:33.494Z,60.30
2022-12-16T07:13:18.849Z,60.88
2022-12-16T07:16:04.917Z,55.63
2022-12-16T07:18:50.144Z,67.05
2022-12-16T07:21:35.369Z,59.63
2022-12-16T07:24:20.571Z,57.72
2022-12-16T07:27:25.543Z,61.75
2022-12-16T07:30:10.549Z,62.60
2022-12-16T07:32:55.836Z,61.70
2022-12-16T07:35:40.639Z,89.07
2022-12-16T07:38:25.622Z,62.95
2022-12-16T07:41:10.420Z,71.90
2022-12-16T07:44:00.110Z,63.72
2022-12-16T07:47:04.784Z,65.75
2022-12-16T07:49:49.751Z,70.70
2022-12-16T07:52:34.935Z,73.80
2022-12-16T07:55:19.706Z,74.93
2022-12-16T07:58:09.145Z,75.57
2022-12-16T08:00:54.539Z,245.45
2022-12-16T08:03:41.403Z,360.35
2022-12-16T08:06:26.235Z,200.55
2022-12-16T08:09:11.293Z,153.45
2022-12-16T08:11:56.185Z,101.40
2022-12-16T08:14:41.189Z,79.00
2022-12-16T08:17:25.960Z,113.37
2022-12-16T08:20:11.479Z,63.78
2022-12-16T08:22:59.056Z,146.82
2022-12-16T08:25:44.683Z,74.70
2022-12-16T08:28:29.907Z,69.45
2022-12-16T08:31:14.784Z,260.27
2022-12-16T08:33:59.916Z,99.63
2022-12-16T08:36:45.216Z,78.85
2022-12-16T08:39:30.102Z,120.65
2022-12-16T08:42:15.369Z,123.88
2022-12-16T08:45:00.279Z,183.88
2022-12-16T08:47:45.397Z,139.27
2022-12-16T08:50:30.330Z,240.32
2022-12-16T08:53:15.489Z,78.67
2022-12-16T08:56:01.295Z,80.22
2022-12-16T08:58:46.326Z,64.53
2022-12-16T09:01:32.019Z,76.15
2022-12-16T09:07:02.354Z,102.93
2022-12-16T09:09:47.355Z,48.45
2022-12-16T09:12:32.284Z,141.10
2022-12-16T09:15:17.495Z,140.10
2022-12-16T09:18:02.361Z,62.38
2022-12-16T09:20:47.509Z,89.20
2022-12-16T09:23:32.568Z,97.82
2022-12-16T09:26:18.117Z,142.43
2022-12-16T09:29:03.188Z,76.95
2022-12-16T09:31:52.603Z,56.13
2022-12-16T09:34:37.531Z,153.00
2022-12-16T09:37:22.437Z,121.60
2022-12-16T09:40:07.361Z,57.25
2022-12-16T09:43:12.591Z,115.50
2022-12-16T09:46:29.927Z,132.30
2022-12-16T09:49:18.057Z,67.80
2022-12-16T09:52:06.003Z,68.43
2022-12-16T09:54:55.424Z,64.63
2022-12-16T09:57:42.483Z,74.00
2022-12-16T10:00:42.028Z,54.08
2022-12-16T10:03:51.132Z,73.88
2022-12-16T10:06:55.836Z,120.25
2022-12-16T10:09:47.994Z,93.00
2022-12-16T10:12:40.888Z,80.63
2022-12-16T10:15:51.568Z,74.85
2022-12-16T10:18:48.335Z,64.00
2022-12-16T10:21:40.512Z,54.45
2022-12-16T10:24:37.912Z,57.88
2022-12-16T10:27:31.904Z,60.72
2022-12-16T10:30:17.367Z,72.78
2022-12-16T10:33:06.439Z,70.93
2022-12-16T10:36:00.440Z,63.20
2022-12-16T10:39:03.004Z,100.82
2022-12-16T10:41:52.669Z,71.40
2022-12-16T10:45:07.615Z,155.57
2022-12-16T10:47:52.521Z,74.10
2022-12-16T10:53:32.952Z,46.05
2022-12-16T10:56:37.228Z,73.28
2022-12-16T10:59:24.645Z,43.88
2022-12-16T11:02:24.414Z,49.65
2022-12-16T11:05:09.631Z,52.10
2022-12-16T11:08:10.955Z,46.58
2022-12-16T11:10:59.165Z,57.97
2022-12-16T11:13:49.819Z,52.25
2022-12-16T11:16:47.369Z,51.80
2022-12-16T11:19:42.006Z,52.38
2022-12-16T11:22:57.542Z,49.95
2022-12-16T11:25:42.363Z,87.25
2022-12-16T11:28:33.133Z,49.47
2022-12-16T11:31:23.497Z,50.47
2022-12-16T11:34:10.747Z,50.97
2022-12-16T11:36:57.658Z,42.38
2022-12-16T11:39:45.429Z,45.30
2022-12-16T11:42:42.453Z,43.17
2022-12-16T11:46:03.354Z,47.20
2022-12-16T11:48:59.205Z,40.53
2022-12-16T11:51:47.873Z,39.45
2022-12-16T11:54:46.301Z,41.63
2022-12-16T11:58:01.900Z,40.67
2022-12-16T12:00:48.107Z,41.15
2022-12-16T12:03:42.632Z,45.45
2022-12-16T12:06:49.647Z,42.92
2022-12-16T12:09:40.213Z,40.50
2022-12-16T12:12:47.339Z,41.45
2022-12-16T12:15:58.866Z,40.58
2022-12-16T12:19:04.876Z,40.13
2022-12-16T12:22:15.060Z,42.00
2022-12-16T12:25:21.009Z,42.10
2022-12-16T12:28:22.952Z,40.65
2022-12-16T12:31:24.731Z,41.13
2022-12-16T12:34:26.659Z,39.63
2022-12-16T12:37:42.972Z,37.42
2022-12-16T12:40:43.324Z,38.30
2022-12-16T12:43:43.654Z,35.80
2022-12-16T12:46:45.092Z,37.55
2022-12-16T12:49:41.444Z,35.17
2022-12-16T12:55:19.916Z,37.38
2022-12-16T12:58:08.520Z,35.88
2022-12-16T13:01:01.554Z,35.42
2022-12-16T13:04:27.158Z,34.70
2022-12-16T13:07:12.749Z,34.53
2022-12-16T13:09:58.294Z,34.72
2022-12-16T13:12:48.474Z,38.08
2022-12-16T13:15:56.558Z,36.85
2022-12-16T13:18:49.312Z,38.90
2022-12-16T13:22:04.388Z,36.00
2022-12-16T13:24:58.469Z,33.45
2022-12-16T13:27:46.427Z,35.50
2022-12-16T13:30:31.406Z,37.13
2022-12-16T13:33:22.828Z,36.30
2022-12-16T13:36:16.603Z,40.08
2022-12-16T13:39:43.904Z,37.50
2022-12-16T13:42:59.722Z,39.75
2022-12-16T13:45:56.251Z,39.10
2022-12-16T13:48:52.107Z,42.65
2022-12-16T13:51:55.195Z,41.55
2022-12-16T13:55:04.983Z,42.58
2022-12-16T13:57:56.009Z,43.03
2022-12-16T14:00:43.833Z,43.13
2022-12-16T14:03:37.085Z,42.53
2022-12-16T14:06:28.023Z,42.60
2022-12-16T14:09:13.123Z,39.72
2022-12-16T14:12:19.925Z,42.58
2022-12-16T14:18:13.392Z,42.88
2022-12-16T14:21:07.645Z,43.35
2022-12-16T14:24:10.118Z,41.50
2022-12-16T14:26:56.789Z,42.60
2022-12-16T14:29:45.592Z,41.63
2022-12-16T14:32:45.311Z,45.38
2022-12-16T14:35:33.111Z,41.97
2022-12-16T14:38:33.617Z,43.03
2022-12-16T14:41:18.548Z,42.30
2022-12-16T14:44:03.502Z,41.37
2022-12-16T14:46:50.109Z,44.80
2022-12-16T14:49:44.031Z,39.97
2022-12-16T14:52:39.627Z,40.28
2022-12-16T14:55:47.393Z,39.40
2022-12-16T14:58:41.031Z,38.47
2022-12-16T15:01:37.379Z,39.10
2022-12-16T15:04:29.077Z,36.63
2022-12-16T15:07:14.852Z,39.08
2022-12-16T15:10:05.052Z,38.33
2022-12-16T15:12:56.025Z,35.90
2022-12-16T15:15:53.322Z,39.15
2022-12-16T15:18:47.087Z,34.88
2022-12-16T15:21:31.920Z,36.38
2022-12-16T15:24:16.708Z,36.28
2022-12-16T15:27:01.737Z,37.85
2022-12-16T15:29:58.961Z,35.50
2022-12-16T15:32:44.007Z,40.33
2022-12-16T15:35:29.731Z,39.57
2022-12-16T15:38:14.540Z,38.47
2022-12-16T15:40:59.799Z,37.85
2022-12-16T15:43:53.670Z,37.75
2022-12-16T15:46:43.962Z,38.40
2022-12-16T15:49:48.292Z,36.00
2022-12-16T15:52:48.752Z,35.05
2022-12-16T15:55:49.173Z,38.33
2022-12-16T15:58:47.473Z,37.85
2022-12-16T16:01:35.416Z,36.33
2022-12-16T16:04:21.121Z,39.08
2022-12-16T16:07:08.888Z,35.85
2022-12-16T16:09:56.293Z,39.53
2022-12-16T16:12:42.493Z,37.58
2022-12-16T16:15:30.381Z,38.20
2022-12-16T16:18:22.551Z,38.17
2022-12-16T16:21:08.745Z,38.85
2022-12-16T16:23:54.103Z,36.15
2022-12-16T16:26:41.715Z,37.03
2022-12-16T16:29:29.535Z,37.22
2022-12-16T16:32:14.680Z,40.92
2022-12-16T16:34:59.756Z,40.30
2022-12-16T16:37:44.716Z,38.67
2022-12-16T16:40:51.797Z,42.87
2022-12-16T16:43:37.563Z,40.70
2022-12-16T16:49:18.688Z,39.53
2022-12-16T16:52:03.607Z,39.38
2022-12-16T16:54:49.259Z,41.55
2022-12-16T16:57:34.445Z,40.50
2022-12-16T17:00:19.613Z,41.40
2022-12-16T17:03:04.964Z,41.55
2022-12-16T17:05:50.008Z,40.97
2022-12-16T17:11:20.944Z,40.42
2022-12-16T17:14:06.115Z,45.15
2022-12-16T17:16:51.054Z,40.65
2022-12-16T17:19:36.218Z,46.38
2022-12-16T17:22:21.076Z,45.70
2022-12-16T17:25:06.245Z,46.20
2022-12-16T17:27:50.987Z,44.30
2022-12-16T17:30:43.495Z,44.22
2022-12-16T17:33:33.278Z,42.28
2022-12-16T17:36:18.865Z,39.78
2022-12-16T17:39:04.492Z,42.13
2022-12-16T17:41:55.652Z,43.20
2022-12-16T17:44:40.508Z,51.58
2022-12-16T17:47:25.283Z,45.17
2022-12-16T17:50:10.131Z,48.67
2022-12-16T17:52:54.893Z,47.55
2022-12-16T17:55:39.831Z,50.83
2022-12-16T17:58:24.639Z,50.63
2022-12-16T18:01:09.563Z,51.33
2022-12-16T18:03:54.604Z,51.97
2022-12-16T18:06:39.736Z,47.20
2022-12-16T18:09:24.816Z,46.70
2022-12-16T18:12:09.556Z,52.42
2022-12-16T18:14:54.820Z,48.25
2022-12-16T18:17:39.856Z,47.20
2022-12-16T18:20:25.118Z,45.88
2022-12-16T18:23:12.965Z,48.33
2022-12-16T18:25:58.146Z,50.55
2022-12-16T18:28:43.314Z,46.00
2022-12-16T18:31:28.637Z,49.97
2022-12-16T18:34:13.766Z,47.58
2022-12-16T18:36:59.219Z,50.37
2022-12-16T18:39:44.373Z,46.03
2022-12-16T18:42:29.413Z,44.60
2022-12-16T18:45:14.290Z,47.97
2022-12-16T18:47:59.496Z,44.30
2022-12-16T18:50:44.683Z,45.22
2022-12-16T18:53:30.019Z,47.55
2022-12-16T18:56:26.069Z,44.30
2022-12-16T18:59:11.479Z,49.03
2022-12-16T19:01:57.118Z,47.35
2022-12-16T19:04:42.733Z,46.17
2022-12-16T19:07:30.701Z,47.67
2022-12-16T19:10:17.955Z,46.63
2022-12-16T19:13:02.813Z,47.23
2022-12-16T19:15:47.839Z,50.28
2022-12-16T19:18:33.139Z,50.30
2022-12-16T19:21:18.359Z,53.42
2022-12-16T19:24:03.343Z,47.80
2022-12-16T19:26:48.531Z,51.30
2022-12-16T19:29:33.678Z,48.20
2022-12-16T19:32:18.727Z,49.13
2022-12-16T19:35:03.978Z,50.88
2022-12-16T19:37:49.033Z,48.53
2022-12-16T19:40:33.941Z,46.10
2022-12-16T19:43:18.794Z,49.78
2022-12-16T19:46:10.955Z,47.50
2022-12-16T19:48:56.235Z,46.83
2022-12-16T19:51:41.007Z,48.53
2022-12-16T19:54:25.880Z,47.65
2022-12-16T19:57:10.968Z,48.78
2022-12-16T19:59:55.687Z,47.13
2022-12-16T20:02:41.785Z,49.40
2022-12-16T20:08:11.663Z,49.50
2022-12-16T20:10:56.534Z,43.72
2022-12-16T20:13:41.928Z,53.67
2022-12-16T20:16:29.117Z,51.67
2022-12-16T20:19:14.951Z,51.17
2022-12-16T20:24:53.578Z,53.10
2022-12-16T20:27:41.931Z,47.70
2022-12-16T20:30:27.713Z,61.15
2022-12-16T20:33:12.926Z,64.50
2022-12-16T20:35:57.912Z,59.63
2022-12-16T20:38:43.061Z,53.17
2022-12-16T20:41:28.267Z,48.92
2022-12-16T20:44:13.436Z,53.17
2022-12-16T20:46:58.809Z,53.85
2022-12-16T20:49:43.848Z,53.88
2022-12-16T20:52:29.063Z,49.50
2022-12-16T20:55:14.220Z,50.90
2022-12-16T20:57:59.365Z,50.75
2022-12-16T21:00:44.586Z,44.88
2022-12-16T21:03:29.709Z,48.05
2022-12-16T21:06:14.789Z,47.13
2022-12-16T21:08:59.910Z,46.85
2022-12-16T21:11:44.809Z,47.40
2022-12-16T21:14:29.880Z,48.33
2022-12-16T21:17:14.808Z,47.75
2022-12-16T21:20:00.122Z,44.87
2022-12-16T21:22:45.166Z,46.70
2022-12-16T21:25:30.114Z,44.38
2022-12-16T21:28:16.333Z,43.85
2022-12-16T21:31:01.718Z,47.40
2022-12-16T21:33:47.140Z,44.88
2022-12-16T21:39:17.583Z,46.20
2022-12-16T21:42:02.409Z,45.83
2022-12-16T21:44:47.626Z,44.20
2022-12-16T21:47:32.729Z,44.45
2022-12-16T21:50:17.607Z,47.83
2022-12-16T21:53:05.680Z,49.08
2022-12-16T21:55:51.085Z,47.92
2022-12-16T21:58:37.103Z,49.78
2022-12-16T22:01:22.098Z,47.15
2022-12-16T22:04:07.127Z,44.65
2022-12-16T22:07:03.267Z,48.10
2022-12-16T22:09:48.113Z,50.85
2022-12-16T22:12:32.818Z,48.60
2022-12-16T22:15:17.932Z,42.28
2022-12-16T22:18:03.212Z,44.20
2022-12-16T22:20:48.112Z,46.00
2022-12-16T22:23:34.058Z,47.83
2022-12-16T22:29:05.331Z,46.35
2022-12-16T22:34:35.449Z,45.92
2022-12-16T22:37:20.440Z,45.53
2022-12-16T22:40:05.463Z,49.70
2022-12-16T22:42:50.279Z,55.37
2022-12-16T22:45:35.210Z,47.28
2022-12-16T22:48:20.474Z,52.38
2022-12-16T22:51:05.604Z,51.60
2022-12-16T22:53:50.699Z,45.97
2022-12-16T22:56:37.018Z,49.55
2022-12-16T22:59:22.099Z,48.45
2022-12-16T23:02:07.420Z,48.10
2022-12-16T23:04:52.270Z,50.35
2022-12-16T23:07:37.504Z,52.40
2022-12-16T23:10:23.880Z,49.55
2022-12-16T23:13:09.027Z,49.80
2022-12-16T23:15:56.533Z,48.95
2022-12-16T23:18:59.608Z,50.40
2022-12-16T23:21:44.932Z,49.58
2022-12-16T23:24:30.177Z,49.42
2022-12-16T23:27:16.099Z,47.58
2022-12-16T23:32:46.276Z,48.58
2022-12-16T23:35:31.072Z,50.15
2022-12-16T23:38:20.651Z,47.30
2022-12-16T23:41:05.778Z,49.03
2022-12-16T23:43:51.224Z,53.22
2022-12-16T23:46:37.017Z,50.35
2022-12-16T23:49:22.282Z,52.58
2022-12-16T23:52:07.197Z,53.45
2022-12-16T23:54:52.188Z,57.97
2022-12-16T23:57:37.276Z,52.87
